ADDS METAR Data INFO
IDs: Format: Raw Decoded Include TAF

Data at: 0653 UTC 19 Nov 2017

KMTH 190553Z AUTO 01004KT 10SM CLR 23/19 A2995 RMK AO2 SLP141 T02280194 10239 20222 58007